sensor_id;sensor_type;location;lat;lon;timestamp;pressure;altitude;pressure_sealevel;temperature;humidity
76868;BME280;66168;45.478;11.060;2023-05-07T00:01:48;100705.55;;;19.27;61.50
76868;BME280;66168;45.478;11.060;2023-05-07T00:04:15;100705.14;;;19.27;61.51
76868;BME280;66168;45.478;11.060;2023-05-07T00:06:42;100703.19;;;19.27;61.37
76868;BME280;66168;45.478;11.060;2023-05-07T00:09:08;100705.60;;;19.27;61.28
76868;BME280;66168;45.478;11.060;2023-05-07T00:11:35;100708.08;;;19.27;61.26
76868;BME280;66168;45.478;11.060;2023-05-07T00:14:02;100708.63;;;19.27;61.35
76868;BME280;66168;45.478;11.060;2023-05-07T00:16:29;100703.61;;;19.27;61.41
76868;BME280;66168;45.478;11.060;2023-05-07T00:18:56;100706.66;;;19.28;61.73
76868;BME280;66168;45.478;11.060;2023-05-07T00:21:23;100703.44;;;19.30;61.74
76868;BME280;66168;45.478;11.060;2023-05-07T00:23:53;100700.31;;;19.33;61.62
76868;BME280;66168;45.478;11.060;2023-05-07T00:26:21;100699.16;;;19.36;61.47
76868;BME280;66168;45.478;11.060;2023-05-07T00:28:48;100697.50;;;19.38;61.36
76868;BME280;66168;45.478;11.060;2023-05-07T00:31:15;100695.08;;;19.40;61.13
76868;BME280;66168;45.478;11.060;2023-05-07T00:33:42;100695.66;;;19.44;60.94
76868;BME280;66168;45.478;11.060;2023-05-07T00:36:09;100698.76;;;19.47;60.83
76868;BME280;66168;45.478;11.060;2023-05-07T00:38:36;100695.52;;;19.49;60.66
76868;BME280;66168;45.478;11.060;2023-05-07T00:41:02;100691.55;;;19.52;60.54
76868;BME280;66168;45.478;11.060;2023-05-07T00:43:29;100692.44;;;19.55;60.55
76868;BME280;66168;45.478;11.060;2023-05-07T00:45:56;100690.73;;;19.58;60.26
76868;BME280;66168;45.478;11.060;2023-05-07T00:48:23;100690.27;;;19.61;60.19
76868;BME280;66168;45.478;11.060;2023-05-07T00:50:51;100686.02;;;19.64;60.07
76868;BME280;66168;45.478;11.060;2023-05-07T00:53:18;100688.03;;;19.68;59.88
76868;BME280;66168;45.478;11.060;2023-05-07T00:55:45;100691.10;;;19.70;59.91
76868;BME280;66168;45.478;11.060;2023-05-07T00:58:11;100691.73;;;19.73;59.83
76868;BME280;66168;45.478;11.060;2023-05-07T01:00:38;100691.46;;;19.76;59.67
76868;BME280;66168;45.478;11.060;2023-05-07T01:03:05;100693.34;;;19.80;59.68
76868;BME280;66168;45.478;11.060;2023-05-07T01:05:32;100693.55;;;19.82;59.53
76868;BME280;66168;45.478;11.060;2023-05-07T01:08:01;100695.71;;;19.84;59.50
76868;BME280;66168;45.478;11.060;2023-05-07T01:10:29;100691.84;;;19.87;59.45
76868;BME280;66168;45.478;11.060;2023-05-07T01:12:58;100689.52;;;19.89;59.41
76868;BME280;66168;45.478;11.060;2023-05-07T01:15:26;100690.57;;;19.90;59.21
76868;BME280;66168;45.478;11.060;2023-05-07T01:17:53;100692.88;;;19.92;59.32
76868;BME280;66168;45.478;11.060;2023-05-07T01:20:25;100686.36;;;19.93;59.20
76868;BME280;66168;45.478;11.060;2023-05-07T01:22:53;100685.16;;;19.95;59.16
76868;BME280;66168;45.478;11.060;2023-05-07T01:25:21;100687.16;;;19.96;59.01
76868;BME280;66168;45.478;11.060;2023-05-07T01:27:49;100683.83;;;19.98;58.99
76868;BME280;66168;45.478;11.060;2023-05-07T01:30:18;100680.03;;;19.99;59.08
76868;BME280;66168;45.478;11.060;2023-05-07T01:32:57;100677.04;;;20.02;59.09
76868;BME280;66168;45.478;11.060;2023-05-07T01:35:30;100674.90;;;20.02;59.02
76868;BME280;66168;45.478;11.060;2023-05-07T01:38:00;100670.21;;;20.03;58.80
76868;BME280;66168;45.478;11.060;2023-05-07T01:40:27;100666.29;;;20.04;58.90
76868;BME280;66168;45.478;11.060;2023-05-07T01:42:54;100663.85;;;20.04;58.84
76868;BME280;66168;45.478;11.060;2023-05-07T01:45:21;100669.45;;;20.05;58.83
76868;BME280;66168;45.478;11.060;2023-05-07T01:47:49;100668.95;;;20.05;58.75
76868;BME280;66168;45.478;11.060;2023-05-07T01:50:18;100671.61;;;20.05;58.63
76868;BME280;66168;45.478;11.060;2023-05-07T01:52:46;100673.33;;;20.04;58.69
76868;BME280;66168;45.478;11.060;2023-05-07T01:55:13;100671.85;;;20.04;58.63
76868;BME280;66168;45.478;11.060;2023-05-07T01:57:40;100678.14;;;20.02;58.60
76868;BME280;66168;45.478;11.060;2023-05-07T02:00:08;100678.23;;;20.02;58.70
76868;BME280;66168;45.478;11.060;2023-05-07T02:02:42;100676.30;;;20.00;58.56
76868;BME280;66168;45.478;11.060;2023-05-07T02:05:15;100681.48;;;19.99;58.67
76868;BME280;66168;45.478;11.060;2023-05-07T02:07:42;100681.65;;;19.97;58.68
76868;BME280;66168;45.478;11.060;2023-05-07T02:10:09;100684.11;;;19.96;58.72
76868;BME280;66168;45.478;11.060;2023-05-07T02:12:36;100686.73;;;19.95;58.69
76868;BME280;66168;45.478;11.060;2023-05-07T02:15:03;100689.21;;;19.92;58.67
76868;BME280;66168;45.478;11.060;2023-05-07T02:17:30;100687.70;;;19.90;58.82
76868;BME280;66168;45.478;11.060;2023-05-07T02:19:59;100686.25;;;19.88;58.89
76868;BME280;66168;45.478;11.060;2023-05-07T02:22:26;100681.95;;;19.87;58.89
76868;BME280;66168;45.478;11.060;2023-05-07T02:24:53;100686.59;;;19.84;58.90
76868;BME280;66168;45.478;11.060;2023-05-07T02:27:19;100684.87;;;19.82;58.97
76868;BME280;66168;45.478;11.060;2023-05-07T02:29:46;100682.88;;;19.80;59.02
76868;BME280;66168;45.478;11.060;2023-05-07T02:32:13;100684.04;;;19.77;59.05
76868;BME280;66168;45.478;11.060;2023-05-07T02:34:39;100685.80;;;19.74;59.20
76868;BME280;66168;45.478;11.060;2023-05-07T02:37:06;100682.95;;;19.71;59.30
76868;BME280;66168;45.478;11.060;2023-05-07T02:39:33;100679.61;;;19.70;59.25
76868;BME280;66168;45.478;11.060;2023-05-07T02:42:00;100675.78;;;19.68;59.30
76868;BME280;66168;45.478;11.060;2023-05-07T02:44:28;100680.76;;;19.66;59.42
76868;BME280;66168;45.478;11.060;2023-05-07T02:46:58;100682.10;;;19.65;59.51
76868;BME280;66168;45.478;11.060;2023-05-07T02:49:25;100685.39;;;19.63;59.53
76868;BME280;66168;45.478;11.060;2023-05-07T02:51:51;100685.64;;;19.58;59.65
76868;BME280;66168;45.478;11.060;2023-05-07T02:54:20;100683.37;;;19.53;59.95
76868;BME280;66168;45.478;11.060;2023-05-07T02:56:47;100682.95;;;19.49;60.04
76868;BME280;66168;45.478;11.060;2023-05-07T02:59:14;100680.65;;;19.45;60.03
76868;BME280;66168;45.478;11.060;2023-05-07T03:01:41;100683.24;;;19.41;60.19
76868;BME280;66168;45.478;11.060;2023-05-07T03:04:11;100683.77;;;19.38;60.18
76868;BME280;66168;45.478;11.060;2023-05-07T03:06:38;100686.41;;;19.33;60.58
76868;BME280;66168;45.478;11.060;2023-05-07T03:09:05;100686.50;;;19.28;60.85
76868;BME280;66168;45.478;11.060;2023-05-07T03:11:32;100689.72;;;19.25;60.76
76868;BME280;66168;45.478;11.060;2023-05-07T03:13:58;100691.04;;;19.22;61.11
76868;BME280;66168;45.478;11.060;2023-05-07T03:16:25;100694.08;;;19.19;61.38
76868;BME280;66168;45.478;11.060;2023-05-07T03:18:53;100692.52;;;19.15;61.85
76868;BME280;66168;45.478;11.060;2023-05-07T03:21:19;100693.94;;;19.11;61.88
76868;BME280;66168;45.478;11.060;2023-05-07T03:23:46;100694.05;;;19.09;61.96
76868;BME280;66168;45.478;11.060;2023-05-07T03:26:13;100694.48;;;19.08;61.86
76868;BME280;66168;45.478;11.060;2023-05-07T03:28:41;100694.15;;;19.05;61.84
76868;BME280;66168;45.478;11.060;2023-05-07T03:31:10;100695.78;;;19.02;61.79
76868;BME280;66168;45.478;11.060;2023-05-07T03:33:57;100693.23;;;18.97;62.06
76868;BME280;66168;45.478;11.060;2023-05-07T03:36:25;100689.96;;;18.93;62.23
76868;BME280;66168;45.478;11.060;2023-05-07T03:38:54;100689.30;;;18.91;62.47
76868;BME280;66168;45.478;11.060;2023-05-07T03:41:23;100689.96;;;18.87;62.36
76868;BME280;66168;45.478;11.060;2023-05-07T03:43:50;100690.68;;;18.84;62.51
76868;BME280;66168;45.478;11.060;2023-05-07T03:46:17;100688.93;;;18.81;62.59
76868;BME280;66168;45.478;11.060;2023-05-07T03:48:43;100691.45;;;18.80;62.69
76868;BME280;66168;45.478;11.060;2023-05-07T03:51:11;100688.52;;;18.79;62.60
76868;BME280;66168;45.478;11.060;2023-05-07T03:53:38;100688.15;;;18.78;62.62
76868;BME280;66168;45.478;11.060;2023-05-07T03:56:05;100690.86;;;18.79;62.76
76868;BME280;66168;45.478;11.060;2023-05-07T03:58:34;100689.33;;;18.80;63.02
76868;BME280;66168;45.478;11.060;2023-05-07T04:01:05;100694.02;;;18.80;63.16
76868;BME280;66168;45.478;11.060;2023-05-07T04:03:31;100695.41;;;18.78;63.21
76868;BME280;66168;45.478;11.060;2023-05-07T04:05:58;100698.07;;;18.74;63.15
76868;BME280;66168;45.478;11.060;2023-05-07T04:08:25;100697.35;;;18.72;63.31
76868;BME280;66168;45.478;11.060;2023-05-07T04:10:57;100696.83;;;18.71;63.37
76868;BME280;66168;45.478;11.060;2023-05-07T04:13:26;100694.02;;;18.70;63.41
76868;BME280;66168;45.478;11.060;2023-05-07T04:15:54;100690.75;;;18.69;63.42
76868;BME280;66168;45.478;11.060;2023-05-07T04:18:22;100693.00;;;18.69;63.42
76868;BME280;66168;45.478;11.060;2023-05-07T04:20:49;100695.72;;;18.67;63.36
76868;BME280;66168;45.478;11.060;2023-05-07T04:23:16;100698.34;;;18.67;63.37
76868;BME280;66168;45.478;11.060;2023-05-07T04:25:43;100701.33;;;18.66;63.35
76868;BME280;66168;45.478;11.060;2023-05-07T04:28:18;100699.83;;;18.66;63.37
76868;BME280;66168;45.478;11.060;2023-05-07T04:30:45;100702.23;;;18.67;63.44
76868;BME280;66168;45.478;11.060;2023-05-07T04:33:14;100706.91;;;18.71;63.43
76868;BME280;66168;45.478;11.060;2023-05-07T04:35:41;100705.70;;;18.74;63.61
76868;BME280;66168;45.478;11.060;2023-05-07T04:38:08;100705.20;;;18.77;63.69
76868;BME280;66168;45.478;11.060;2023-05-07T04:40:36;100705.25;;;18.80;63.67
76868;BME280;66168;45.478;11.060;2023-05-07T04:43:03;100702.60;;;18.85;63.58
76868;BME280;66168;45.478;11.060;2023-05-07T04:45:33;100703.00;;;18.87;63.52
76868;BME280;66168;45.478;11.060;2023-05-07T04:48:00;100705.54;;;18.88;63.61
76868;BME280;66168;45.478;11.060;2023-05-07T04:50:27;100710.62;;;18.90;63.76
76868;BME280;66168;45.478;11.060;2023-05-07T04:52:56;100713.37;;;18.92;63.51
76868;BME280;66168;45.478;11.060;2023-05-07T04:55:23;100716.19;;;18.92;63.68
76868;BME280;66168;45.478;11.060;2023-05-07T04:57:50;100716.96;;;18.95;63.81
76868;BME280;66168;45.478;11.060;2023-05-07T05:00:17;100718.24;;;18.99;63.90
76868;BME280;66168;45.478;11.060;2023-05-07T05:02:46;100723.07;;;19.04;63.85
76868;BME280;66168;45.478;11.060;2023-05-07T05:05:15;100727.48;;;19.12;63.77
76868;BME280;66168;45.478;11.060;2023-05-07T05:07:43;100733.39;;;19.19;63.82
76868;BME280;66168;45.478;11.060;2023-05-07T05:10:11;100738.73;;;19.28;63.85
76868;BME280;66168;45.478;11.060;2023-05-07T05:12:39;100738.44;;;19.37;63.59
76868;BME280;66168;45.478;11.060;2023-05-07T05:15:06;100737.45;;;19.46;63.49
76868;BME280;66168;45.478;11.060;2023-05-07T05:17:33;100737.52;;;19.52;63.40
76868;BME280;66168;45.478;11.060;2023-05-07T05:20:02;100739.59;;;19.60;63.33
76868;BME280;66168;45.478;11.060;2023-05-07T05:22:29;100743.28;;;19.65;63.08
76868;BME280;66168;45.478;11.060;2023-05-07T05:24:58;100744.76;;;19.68;62.99
76868;BME280;66168;45.478;11.060;2023-05-07T05:27:24;100749.61;;;19.68;63.10
76868;BME280;66168;45.478;11.060;2023-05-07T05:29:51;100758.73;;;19.65;63.09
76868;BME280;66168;45.478;11.060;2023-05-07T05:32:18;100761.63;;;19.63;63.15
76868;BME280;66168;45.478;11.060;2023-05-07T05:34:45;100763.23;;;19.62;63.26
76868;BME280;66168;45.478;11.060;2023-05-07T05:37:12;100765.04;;;19.63;63.44
76868;BME280;66168;45.478;11.060;2023-05-07T05:39:39;100764.84;;;19.70;63.69
76868;BME280;66168;45.478;11.060;2023-05-07T05:42:06;100763.70;;;19.76;63.94
76868;BME280;66168;45.478;11.060;2023-05-07T05:44:34;100764.02;;;19.80;64.18
76868;BME280;66168;45.478;11.060;2023-05-07T05:47:00;100763.89;;;19.84;63.99
76868;BME280;66168;45.478;11.060;2023-05-07T05:49:28;100762.79;;;19.90;64.01
76868;BME280;66168;45.478;11.060;2023-05-07T05:51:55;100763.63;;;19.93;64.10
76868;BME280;66168;45.478;11.060;2023-05-07T05:54:23;100762.34;;;19.94;64.02
76868;BME280;66168;45.478;11.060;2023-05-07T05:56:49;100759.04;;;19.96;64.05
76868;BME280;66168;45.478;11.060;2023-05-07T05:59:17;100760.58;;;19.97;63.96
76868;BME280;66168;45.478;11.060;2023-05-07T06:01:45;100763.10;;;20.01;63.79
76868;BME280;66168;45.478;11.060;2023-05-07T06:04:12;100768.21;;;20.03;63.86
76868;BME280;66168;45.478;11.060;2023-05-07T06:06:38;100768.91;;;20.00;63.75
76868;BME280;66168;45.478;11.060;2023-05-07T06:09:05;100771.83;;;20.00;63.74
76868;BME280;66168;45.478;11.060;2023-05-07T06:11:39;100773.70;;;20.06;63.67
76868;BME280;66168;45.478;11.060;2023-05-07T06:14:08;100776.17;;;20.11;63.71
76868;BME280;66168;45.478;11.060;2023-05-07T06:16:35;100777.98;;;20.14;63.94
76868;BME280;66168;45.478;11.060;2023-05-07T06:19:05;100777.37;;;20.23;63.72
76868;BME280;66168;45.478;11.060;2023-05-07T06:21:31;100777.30;;;20.30;63.18
76868;BME280;66168;45.478;11.060;2023-05-07T06:23:59;100773.30;;;20.37;62.75
76868;BME280;66168;45.478;11.060;2023-05-07T06:26:25;100777.60;;;20.46;62.39
76868;BME280;66168;45.478;11.060;2023-05-07T06:28:52;100778.77;;;20.56;62.35
76868;BME280;66168;45.478;11.060;2023-05-07T06:31:19;100772.96;;;20.64;62.13
76868;BME280;66168;45.478;11.060;2023-05-07T06:33:53;100772.38;;;20.70;61.92
76868;BME280;66168;45.478;11.060;2023-05-07T06:36:23;100766.77;;;20.75;61.87
76868;BME280;66168;45.478;11.060;2023-05-07T06:38:52;100771.89;;;20.93;61.59
76868;BME280;66168;45.478;11.060;2023-05-07T06:41:20;100769.68;;;21.05;60.79
76868;BME280;66168;45.478;11.060;2023-05-07T06:43:47;100776.13;;;21.18;60.71
76868;BME280;66168;45.478;11.060;2023-05-07T06:46:28;100774.84;;;21.42;60.69
76868;BME280;66168;45.478;11.060;2023-05-07T06:48:56;100776.00;;;21.68;60.33
76868;BME280;66168;45.478;11.060;2023-05-07T06:51:24;100780.73;;;21.89;59.94
76868;BME280;66168;45.478;11.060;2023-05-07T06:53:51;100782.98;;;22.06;59.40
76868;BME280;66168;45.478;11.060;2023-05-07T06:56:19;100786.88;;;22.17;58.49
76868;BME280;66168;45.478;11.060;2023-05-07T06:58:46;100787.04;;;22.24;58.35
76868;BME280;66168;45.478;11.060;2023-05-07T07:01:13;100781.22;;;22.26;58.27
76868;BME280;66168;45.478;11.060;2023-05-07T07:03:40;100781.73;;;22.29;57.95
76868;BME280;66168;45.478;11.060;2023-05-07T07:06:06;100776.89;;;22.31;57.88
76868;BME280;66168;45.478;11.060;2023-05-07T07:08:33;100772.92;;;22.26;57.64
76868;BME280;66168;45.478;11.060;2023-05-07T07:11:01;100770.37;;;22.22;57.39
76868;BME280;66168;45.478;11.060;2023-05-07T07:13:28;100767.27;;;22.18;57.37
76868;BME280;66168;45.478;11.060;2023-05-07T07:15:55;100772.91;;;22.14;57.36
76868;BME280;66168;45.478;11.060;2023-05-07T07:18:22;100773.52;;;22.11;57.26
76868;BME280;66168;45.478;11.060;2023-05-07T07:20:49;100773.64;;;22.09;56.95
76868;BME280;66168;45.478;11.060;2023-05-07T07:23:16;100774.25;;;22.20;57.17
76868;BME280;66168;45.478;11.060;2023-05-07T07:25:43;100772.74;;;22.36;56.30
76868;BME280;66168;45.478;11.060;2023-05-07T07:28:10;100769.67;;;22.54;56.37
76868;BME280;66168;45.478;11.060;2023-05-07T07:30:39;100766.03;;;22.76;55.60
76868;BME280;66168;45.478;11.060;2023-05-07T07:33:06;100765.84;;;22.97;55.26
76868;BME280;66168;45.478;11.060;2023-05-07T07:35:35;100766.07;;;23.18;54.08
76868;BME280;66168;45.478;11.060;2023-05-07T07:38:03;100771.50;;;23.28;53.66
76868;BME280;66168;45.478;11.060;2023-05-07T07:40:30;100766.29;;;23.42;53.59
76868;BME280;66168;45.478;11.060;2023-05-07T07:42:57;100764.28;;;23.59;53.83
76868;BME280;66168;45.478;11.060;2023-05-07T07:45:24;100763.83;;;23.91;53.21
76868;BME280;66168;45.478;11.060;2023-05-07T07:47:51;100759.39;;;24.14;52.62
76868;BME280;66168;45.478;11.060;2023-05-07T07:50:18;100761.35;;;24.13;52.47
76868;BME280;66168;45.478;11.060;2023-05-07T07:53:05;100758.32;;;23.95;52.24
76868;BME280;66168;45.478;11.060;2023-05-07T07:55:32;100761.02;;;23.85;52.70
76868;BME280;66168;45.478;11.060;2023-05-07T07:57:59;100762.14;;;23.76;52.70
76868;BME280;66168;45.478;11.060;2023-05-07T08:00:26;100764.55;;;23.65;52.93
76868;BME280;66168;45.478;11.060;2023-05-07T08:02:53;100762.88;;;23.54;52.85
76868;BME280;66168;45.478;11.060;2023-05-07T08:05:24;100765.69;;;23.47;53.17
76868;BME280;66168;45.478;11.060;2023-05-07T08:07:52;100771.61;;;23.42;53.27
76868;BME280;66168;45.478;11.060;2023-05-07T08:10:23;100774.33;;;23.47;53.62
76868;BME280;66168;45.478;11.060;2023-05-07T08:12:55;100776.42;;;23.58;53.36
76868;BME280;66168;45.478;11.060;2023-05-07T08:15:22;100773.66;;;23.59;52.99
76868;BME280;66168;45.478;11.060;2023-05-07T08:17:50;100773.73;;;23.59;53.11
76868;BME280;66168;45.478;11.060;2023-05-07T08:20:17;100775.97;;;23.67;52.20
76868;BME280;66168;45.478;11.060;2023-05-07T08:22:44;100774.41;;;23.82;51.79
76868;BME280;66168;45.478;11.060;2023-05-07T08:25:11;100779.18;;;23.88;52.04
76868;BME280;66168;45.478;11.060;2023-05-07T08:27:38;100781.38;;;23.91;52.03
76868;BME280;66168;45.478;11.060;2023-05-07T08:30:06;100786.20;;;23.81;51.93
76868;BME280;66168;45.478;11.060;2023-05-07T08:32:36;100784.71;;;23.67;51.82
76868;BME280;66168;45.478;11.060;2023-05-07T08:35:03;100788.84;;;23.61;51.52
76868;BME280;66168;45.478;11.060;2023-05-07T08:37:30;100791.42;;;23.64;51.66
76868;BME280;66168;45.478;11.060;2023-05-07T08:39:57;100793.96;;;23.69;51.53
76868;BME280;66168;45.478;11.060;2023-05-07T08:42:28;100793.96;;;23.69;51.63
76868;BME280;66168;45.478;11.060;2023-05-07T08:44:57;100791.77;;;23.68;51.29
76868;BME280;66168;45.478;11.060;2023-05-07T08:47:29;100794.33;;;23.74;51.36
76868;BME280;66168;45.478;11.060;2023-05-07T08:50:02;100789.71;;;23.93;51.42
76868;BME280;66168;45.478;11.060;2023-05-07T08:52:28;100789.95;;;24.14;50.71
76868;BME280;66168;45.478;11.060;2023-05-07T08:54:56;100792.92;;;24.38;50.79
76868;BME280;66168;45.478;11.060;2023-05-07T08:57:24;100794.52;;;24.63;50.53
76868;BME280;66168;45.478;11.060;2023-05-07T08:59:51;100788.94;;;24.86;50.09
76868;BME280;66168;45.478;11.060;2023-05-07T09:02:18;100791.38;;;25.09;49.32
76868;BME280;66168;45.478;11.060;2023-05-07T09:04:46;100789.33;;;25.18;48.46
76868;BME280;66168;45.478;11.060;2023-05-07T09:07:13;100789.24;;;25.27;48.26
76868;BME280;66168;45.478;11.060;2023-05-07T09:09:41;100789.59;;;25.42;47.83
76868;BME280;66168;45.478;11.060;2023-05-07T09:12:08;100785.52;;;25.68;46.77
76868;BME280;66168;45.478;11.060;2023-05-07T09:14:35;100785.08;;;25.78;46.46
76868;BME280;66168;45.478;11.060;2023-05-07T09:17:02;100782.41;;;25.90;46.49
76868;BME280;66168;45.478;11.060;2023-05-07T09:19:30;100785.12;;;25.98;46.22
76868;BME280;66168;45.478;11.060;2023-05-07T09:22:00;100783.70;;;26.04;46.34
76868;BME280;66168;45.478;11.060;2023-05-07T09:24:30;100782.61;;;26.11;46.41
76868;BME280;66168;45.478;11.060;2023-05-07T09:27:01;100776.93;;;26.26;46.21
76868;BME280;66168;45.478;11.060;2023-05-07T09:29:29;100773.03;;;26.55;45.77
76868;BME280;66168;45.478;11.060;2023-05-07T09:32:07;100767.06;;;26.80;45.01
76868;BME280;66168;45.478;11.060;2023-05-07T09:34:35;100771.11;;;26.92;44.72
76868;BME280;66168;45.478;11.060;2023-05-07T09:37:03;100775.83;;;26.86;44.07
76868;BME280;66168;45.478;11.060;2023-05-07T09:42:08;100778.45;;;26.71;43.84
76868;BME280;66168;45.478;11.060;2023-05-07T09:44:35;100771.02;;;26.70;43.77
76868;BME280;66168;45.478;11.060;2023-05-07T09:47:07;100772.34;;;26.53;42.80
76868;BME280;66168;45.478;11.060;2023-05-07T09:49:40;100771.67;;;26.37;42.88
76868;BME280;66168;45.478;11.060;2023-05-07T09:52:10;100773.93;;;26.29;43.14
76868;BME280;66168;45.478;11.060;2023-05-07T09:54:43;100769.30;;;26.13;43.31
76868;BME280;66168;45.478;11.060;2023-05-07T09:57:11;100769.47;;;26.09;43.25
76868;BME280;66168;45.478;11.060;2023-05-07T09:59:43;100769.91;;;25.99;43.53
76868;BME280;66168;45.478;11.060;2023-05-07T10:02:13;100769.22;;;25.93;43.99
76868;BME280;66168;45.478;11.060;2023-05-07T10:04:46;100768.07;;;25.91;44.09
76868;BME280;66168;45.478;11.060;2023-05-07T10:07:14;100770.15;;;25.85;44.19
76868;BME280;66168;45.478;11.060;2023-05-07T10:09:41;100767.15;;;25.89;44.48
76868;BME280;66168;45.478;11.060;2023-05-07T10:12:19;100767.64;;;25.97;44.69
76868;BME280;66168;45.478;11.060;2023-05-07T10:14:48;100766.69;;;26.16;44.63
76868;BME280;66168;45.478;11.060;2023-05-07T10:17:16;100761.83;;;26.30;44.49
76868;BME280;66168;45.478;11.060;2023-05-07T10:19:47;100756.36;;;26.49;44.43
76868;BME280;66168;45.478;11.060;2023-05-07T10:22:15;100755.83;;;26.76;44.44
76868;BME280;66168;45.478;11.060;2023-05-07T10:24:44;100751.48;;;27.00;44.11
76868;BME280;66168;45.478;11.060;2023-05-07T10:27:15;100751.83;;;27.13;44.19
76868;BME280;66168;45.478;11.060;2023-05-07T10:30:07;100751.86;;;27.26;43.48
76868;BME280;66168;45.478;11.060;2023-05-07T10:33:01;100742.39;;;27.46;43.24
76868;BME280;66168;45.478;11.060;2023-05-07T10:35:38;100740.73;;;27.49;43.01
76868;BME280;66168;45.478;11.060;2023-05-07T10:38:08;100741.73;;;27.37;42.90
76868;BME280;66168;45.478;11.060;2023-05-07T10:40:37;100740.33;;;27.18;43.20
76868;BME280;66168;45.478;11.060;2023-05-07T10:43:05;100741.92;;;26.98;43.14
76868;BME280;66168;45.478;11.060;2023-05-07T10:45:40;100743.16;;;26.81;43.69
76868;BME280;66168;45.478;11.060;2023-05-07T10:48:15;100745.70;;;26.68;44.19
76868;BME280;66168;45.478;11.060;2023-05-07T10:51:28;100750.06;;;26.56;43.94
76868;BME280;66168;45.478;11.060;2023-05-07T10:56:39;100748.32;;;26.23;44.67
76868;BME280;66168;45.478;11.060;2023-05-07T11:02:03;100748.65;;;26.05;45.47
76868;BME280;66168;45.478;11.060;2023-05-07T11:05:21;100747.79;;;25.96;45.18
76868;BME280;66168;45.478;11.060;2023-05-07T11:08:08;100743.78;;;25.84;45.53
76868;BME280;66168;45.478;11.060;2023-05-07T11:10:54;100740.83;;;25.79;45.58
76868;BME280;66168;45.478;11.060;2023-05-07T11:13:48;100733.70;;;25.76;45.71
76868;BME280;66168;45.478;11.060;2023-05-07T11:16:31;100731.53;;;26.03;45.81
76868;BME280;66168;45.478;11.060;2023-05-07T11:19:55;100727.03;;;26.46;45.19
76868;BME280;66168;45.478;11.060;2023-05-07T11:25:07;100712.90;;;27.36;44.31
76868;BME280;66168;45.478;11.060;2023-05-07T11:27:34;100711.03;;;27.72;43.61
76868;BME280;66168;45.478;11.060;2023-05-07T11:30:02;100707.70;;;28.04;43.25
76868;BME280;66168;45.478;11.060;2023-05-07T11:32:31;100706.74;;;28.38;42.62
76868;BME280;66168;45.478;11.060;2023-05-07T11:35:00;100706.25;;;28.61;42.42
76868;BME280;66168;45.478;11.060;2023-05-07T11:37:27;100700.54;;;28.83;41.64
76868;BME280;66168;45.478;11.060;2023-05-07T11:40:09;100699.64;;;28.93;40.83
76868;BME280;66168;45.478;11.060;2023-05-07T11:42:39;100702.30;;;28.87;40.95
76868;BME280;66168;45.478;11.060;2023-05-07T11:45:07;100697.94;;;28.86;41.34
76868;BME280;66168;45.478;11.060;2023-05-07T11:47:34;100696.17;;;28.97;40.97
76868;BME280;66168;45.478;11.060;2023-05-07T11:50:06;100697.42;;;29.12;41.11
76868;BME280;66168;45.478;11.060;2023-05-07T11:52:34;100694.51;;;29.17;40.61
76868;BME280;66168;45.478;11.060;2023-05-07T11:55:02;100693.92;;;29.15;40.09
76868;BME280;66168;45.478;11.060;2023-05-07T11:57:33;100693.35;;;29.07;40.10
76868;BME280;66168;45.478;11.060;2023-05-07T12:00:01;100692.73;;;29.04;40.63
76868;BME280;66168;45.478;11.060;2023-05-07T12:02:41;100697.59;;;29.20;40.27
76868;BME280;66168;45.478;11.060;2023-05-07T12:05:08;100690.17;;;29.35;40.59
76868;BME280;66168;45.478;11.060;2023-05-07T12:07:36;100690.33;;;29.53;40.09
76868;BME280;66168;45.478;11.060;2023-05-07T12:10:06;100688.16;;;29.49;39.77
76868;BME280;66168;45.478;11.060;2023-05-07T12:12:40;100690.29;;;29.28;39.18
76868;BME280;66168;45.478;11.060;2023-05-07T12:15:08;100691.89;;;29.16;39.61
76868;BME280;66168;45.478;11.060;2023-05-07T12:17:36;100687.89;;;29.05;38.92
76868;BME280;66168;45.478;11.060;2023-05-07T12:20:03;100689.24;;;28.86;39.48
76868;BME280;66168;45.478;11.060;2023-05-07T12:22:31;100687.70;;;28.78;39.30
76868;BME280;66168;45.478;11.060;2023-05-07T12:24:58;100688.14;;;28.77;39.38
76868;BME280;66168;45.478;11.060;2023-05-07T12:27:26;100689.30;;;28.73;39.68
76868;BME280;66168;45.478;11.060;2023-05-07T12:29:53;100692.27;;;28.62;40.03
76868;BME280;66168;45.478;11.060;2023-05-07T12:32:21;100692.42;;;28.58;39.93
76868;BME280;66168;45.478;11.060;2023-05-07T12:34:51;100691.41;;;28.56;39.85
76868;BME280;66168;45.478;11.060;2023-05-07T12:37:23;100684.55;;;28.58;39.99
76868;BME280;66168;45.478;11.060;2023-05-07T12:40:08;100687.27;;;28.62;39.95
76868;BME280;66168;45.478;11.060;2023-05-07T12:42:36;100689.71;;;28.48;40.23
76868;BME280;66168;45.478;11.060;2023-05-07T12:45:15;100687.77;;;28.41;40.00
76868;BME280;66168;45.478;11.060;2023-05-07T12:47:44;100688.47;;;28.51;40.08
76868;BME280;66168;45.478;11.060;2023-05-07T12:50:13;100680.39;;;28.58;39.81
76868;BME280;66168;45.478;11.060;2023-05-07T12:52:40;100679.41;;;28.58;40.00
76868;BME280;66168;45.478;11.060;2023-05-07T12:55:08;100672.48;;;28.52;39.37
76868;BME280;66168;45.478;11.060;2023-05-07T12:57:43;100671.20;;;28.62;39.79
76868;BME280;66168;45.478;11.060;2023-05-07T13:00:10;100665.75;;;28.81;39.49
76868;BME280;66168;45.478;11.060;2023-05-07T13:02:38;100664.54;;;29.04;39.30